Cheyenne, WY (82010)

8:21 PM MDT on May 22, 2015 (GMT -0600)
Bison Crossing | | Change Station
CLOSE
Current Station
Personal Weather Station
Location: Cheyenne, WY
Elevation: 6110 ft
Nearby Weather Stations

Elev 6110 ft 41.07 °N, 104.81 °W | Updated 3 seconds ago

Overcast
Overcast
46.6 °F
Feels Like 47 °F
N
1.0
Wind Variable Wind from SE
Gusts 14.0 mph

Today
High -- | Low -- °F
--% Chance of Precip.
Yesterday
High -- | Low -- °F
Precip. -- in
5:35 AM 8:16 PM
Waxing Crescent, 26% visible
Pressure 30.03 in
Visibility 4.0 miles
Clouds Scattered Clouds 1400 ft
Overcast 2200 ft
Windchill 47 °F
Dew Point 45 °F
Humidity 93%
Rainfall 0.35 in
Snow Depth Not available.
UV 0 out of 12
Pollen .90 out of 12
Air Quality Not available.
Flu Activity Sporadic
METAR KCYS 230153Z 14006KT 4SM BR SCT014 OVC022 08/06 A3003 RMK AO2 RAB22E34B41E52 SLPNO P0000 T00780056

More Conditions Fewer Conditions

Pressure 30.03 in
Visibility 4.0 miles
Clouds Scattered Clouds 1400 ft
Overcast 2200 ft
Windchill 47 °F
Dew Point 45 °F
Humidity 93%
Rainfall 0.35 in
Snow Depth Not available.
UV 0 out of 12
Pollen .90 out of 12
Air Quality Not available.
Flu Activity Sporadic
METAR KCYS 230153Z 14006KT 4SM BR SCT014 OVC022 08/06 A3003 RMK AO2 RAB22E34B41E52 SLPNO P0000 T00780056

More Conditions Fewer Conditions

10-Day Weather Forecast

Almanac

Astronomy

May. 22, 2015 Rise Set
Actual Time
Civil Twilight
Nautical Twilight
Astronomical Twilight
Moon
Length of Visible Light
Length of Day
Tomorrow will be .
, % of the Moon is Illuminated

Today's Extremes

State Highs State Lows

Community

WunderPhotos

Upload Photos

1,823,364 photos uploaded!

WunderBlogs® & News

Nearby

Air Quality

  Air Quality AQ Index Pollutant
Not available.

Snow Depth

Station Depth Elevation

Earthquake Activity

City Distance Mag. Time & Date
Minimum magnitude displayed is 2.5.

Coastal Water Temperatures

Place Temperature

Stations

Nearby Weather Stations

Station Location Temp. Windchill Dew Point Humidity Wind Precip. Elev Updated Type